KACB/ACB METAR and TAF weather

Enter ICAO airport designator
Station Type Date Time Source
KACB METAR 2020/03/29 10:55 UTC NOAA

KACB 291055Z AUTO 14004KT 10SM OVC011 08/06 A2942 RMK AO2 T00800060


Station Type Date Time Source
KACB Decoded METAR 2020/03/29 10:55 UTC NOAA

Bellaire, Antrim County Airport, MI, United States (KACB) 44-59-18N 085-11-54W
Mar 29, 2020 - 06:55 AM EDT / 2020.03.29 1055 UTC
Wind: from the SE (140 degrees) at 5 MPH (4 KT):0
Visibility: 10 mile(s):0
Sky conditions: overcast
Temperature: 46.4 F (8.0 C)
Dew Point: 42.8 F (6.0 C)
Relative Humidity: 87%
Pressure (altimeter): 29.42 in. Hg (996 hPa)
ob: KACB 291055Z AUTO 14004KT 10SM OVC011 08/06 A2942 RMK AO2 T00800060
cycle: 11

Station Type Date Time Source
KACB TAF UTC NOAA

Error!

Example: see airport list